メインページ
METAR-TAF:

METAR-TAF

空港 :

キング・ハーリド国際空港

リヤド, サウジアラビア

緯度: 24-56N, 経度: 046-43E, 海抜: 614m

現時点の気象観測

当レポートは21分前の18:00(UTC)に作成
無風
気温 19°C
湿度 68%
気圧 1017 hPa
視程10km以上
高度4000ftの雲は散在している
高度8000ftの千切れ雲あり

METAR: OERK 171800Z 00000KT 9999 SCT040 BKN080 19/13 Q1017 NOSIG

時間: 21:21 (18:21 UTC)

予報

当レポートは1時間21分前の17:00(UTC)に作成
予報は17日の 18時(UTC)から 18日の 24時(UTC)まで有効
南東の風 10kt
視程: 7000m
高度4000ftの雲はほとんどない
高度8000ftの雲は散在している
17日の 18時(UTC)から 18日の 06時(UTC)まで一時的に
視程: 3500m
高度3500ftの雲はほとんどない, 積乱雲.
高度4000ftの雲は散在している
靄, 激しい雷雨
18日の 06時(UTC)から 18日の 08時(UTC)まで徐々に
南東の風 15kt

TAF: OERK 171700Z 1718/1824 13010KT 7000 FEW040 SCT080 TEMPO 1718/1806 3500 BR TS FEW035CB SCT040 BECMG 1806/1808 13015KT

4,000以上の空港の気象観測と天気予報(METAR報とTAF報)

利用可能な観測所は地図上に黄色い丸と赤い丸で示す。

丸の上にカーソルを重ねると観測所名を参照できる。

次にクリックすると気象観測と天気予報を参照できる。

マップの切り替え:黒色「×」印の緑ボタンをクリックして拡大、「-」印の緑ボタンをクリックして縮小、緑色の三角印をクリックして隣りの地図に切り替え


METAR-TAF: